ETNL

Rostock-Laage Airport

Rostock, Germany
METAR ETNL 162120Z 12005KT 9999 OVC030 M01/M04 Q1014 BLU
Observed Flight Rules
Dec-16 @ 21:20 UTC (42 minutes ago) Marginal Visual Flight Rules
Wind Visibility Clouds
120° at 5 knots 10,000+ meters
  • Overcast at 3,000' AGL
Temperatures Readings
Current -1°C / 30°F
Dewpoint -4°C / 25°F
Humidity 80%
Altimeter 29.94" Hg
Pressure 1014 hPa
Elevation 40
METAR ETNL 162120Z 12005KT 9999 OVC030 M01/M04 Q1014 BLU
Observed Flight Rules
Dec-16 @ 21:20 UTC
(42 minutes ago)
MVFR
Wind Visibility
120° at 5 knots 10,000+ meters
Clouds
  • Overcast at 3,000' AGL
Temperature Dewpoint
-1°C / 30°F -4°C / 25°F
Humidity Altimeter Pressure
80% 29.94" Hg 1014 hPa